X  Zatvori METAR podaci zračne luke     EHEH Eindhoven Airport
Temperatura
17°C Temperatura
11°C Točka rosišta
68% Vlaga



Vjetar
1 M/S
3 MPS
5 KM/S
3 Čvorovi



190°
J
Trenutna situacija

Slaba Kiša Slaba Kiša
Tlak zraka 1016.93 (hPa) - 30.03 (inHg)
Vidljivost 6 (milje) - 9.7 (km)
Zračna luka
Kôd zračne luke EHEH

Lokacija: Eindhoven Airport
Udaljenost: 10 (km)

Metar:
EHEH 271255Z AUTO 19003KT 160V270 9999 -RA FEW013 SCT053 BKN064 17/11 Q1017 BLU TEMPO FEW030CB

Vrijeme: 27-05-2024 14:55 CEST